sensor_id;sensor_type;location;lat;lon;timestamp;P1;durP1;ratioP1;P2;durP2;ratioP2
20456;SDS011;10387;51.102;6.848;2022-11-20T00:01:22;24.17;;;15.93;;
20456;SDS011;10387;51.102;6.848;2022-11-20T00:03:49;23.00;;;15.80;;
20456;SDS011;10387;51.102;6.848;2022-11-20T00:06:18;21.33;;;15.37;;
20456;SDS011;10387;51.102;6.848;2022-11-20T00:08:45;24.00;;;15.83;;
20456;SDS011;10387;51.102;6.848;2022-11-20T00:11:12;25.50;;;16.73;;
20456;SDS011;10387;51.102;6.848;2022-11-20T00:13:38;22.87;;;15.53;;
20456;SDS011;10387;51.102;6.848;2022-11-20T00:16:06;25.43;;;17.33;;
20456;SDS011;10387;51.102;6.848;2022-11-20T00:18:32;25.53;;;16.33;;
20456;SDS011;10387;51.102;6.848;2022-11-20T00:21:05;24.03;;;16.77;;
20456;SDS011;10387;51.102;6.848;2022-11-20T00:23:31;24.67;;;16.63;;
20456;SDS011;10387;51.102;6.848;2022-11-20T00:26:16;23.67;;;17.10;;
20456;SDS011;10387;51.102;6.848;2022-11-20T00:28:43;24.77;;;17.00;;
20456;SDS011;10387;51.102;6.848;2022-11-20T00:31:11;24.43;;;16.53;;
20456;SDS011;10387;51.102;6.848;2022-11-20T00:33:37;24.47;;;16.80;;
20456;SDS011;10387;51.102;6.848;2022-11-20T00:36:04;24.13;;;16.20;;
20456;SDS011;10387;51.102;6.848;2022-11-20T00:38:31;23.00;;;15.77;;
20456;SDS011;10387;51.102;6.848;2022-11-20T00:40:58;23.60;;;15.90;;
20456;SDS011;10387;51.102;6.848;2022-11-20T00:43:24;25.33;;;16.10;;
20456;SDS011;10387;51.102;6.848;2022-11-20T00:45:55;25.27;;;16.97;;
20456;SDS011;10387;51.102;6.848;2022-11-20T00:48:22;22.03;;;15.67;;
20456;SDS011;10387;51.102;6.848;2022-11-20T00:50:48;26.47;;;17.27;;
20456;SDS011;10387;51.102;6.848;2022-11-20T00:53:14;23.67;;;16.80;;
20456;SDS011;10387;51.102;6.848;2022-11-20T00:55:40;25.90;;;17.40;;
20456;SDS011;10387;51.102;6.848;2022-11-20T00:58:07;23.67;;;16.50;;
20456;SDS011;10387;51.102;6.848;2022-11-20T01:00:35;23.50;;;16.40;;
20456;SDS011;10387;51.102;6.848;2022-11-20T01:03:01;25.87;;;17.47;;
20456;SDS011;10387;51.102;6.848;2022-11-20T01:05:27;25.77;;;16.63;;
20456;SDS011;10387;51.102;6.848;2022-11-20T01:07:53;23.33;;;15.67;;
20456;SDS011;10387;51.102;6.848;2022-11-20T01:10:19;26.47;;;17.40;;
20456;SDS011;10387;51.102;6.848;2022-11-20T01:12:45;22.53;;;15.47;;
20456;SDS011;10387;51.102;6.848;2022-11-20T01:15:33;23.53;;;16.73;;
20456;SDS011;10387;51.102;6.848;2022-11-20T01:17:59;22.93;;;15.73;;
20456;SDS011;10387;51.102;6.848;2022-11-20T01:20:25;26.50;;;17.10;;
20456;SDS011;10387;51.102;6.848;2022-11-20T01:22:51;23.93;;;17.40;;
20456;SDS011;10387;51.102;6.848;2022-11-20T01:25:17;24.77;;;16.97;;
20456;SDS011;10387;51.102;6.848;2022-11-20T01:27:43;25.60;;;16.73;;
20456;SDS011;10387;51.102;6.848;2022-11-20T01:30:10;24.07;;;16.30;;
20456;SDS011;10387;51.102;6.848;2022-11-20T01:32:36;21.20;;;15.10;;
20456;SDS011;10387;51.102;6.848;2022-11-20T01:35:02;21.27;;;15.83;;
20456;SDS011;10387;51.102;6.848;2022-11-20T01:37:28;24.57;;;16.07;;
20456;SDS011;10387;51.102;6.848;2022-11-20T01:39:54;22.20;;;15.33;;
20456;SDS011;10387;51.102;6.848;2022-11-20T01:42:20;22.97;;;15.87;;
20456;SDS011;10387;51.102;6.848;2022-11-20T01:47:50;21.60;;;14.80;;
20456;SDS011;10387;51.102;6.848;2022-11-20T01:50:18;22.30;;;15.23;;
20456;SDS011;10387;51.102;6.848;2022-11-20T01:52:49;21.33;;;14.90;;
20456;SDS011;10387;51.102;6.848;2022-11-20T01:55:20;22.67;;;15.43;;
20456;SDS011;10387;51.102;6.848;2022-11-20T01:57:47;20.47;;;14.70;;
20456;SDS011;10387;51.102;6.848;2022-11-20T02:00:15;21.37;;;15.07;;
20456;SDS011;10387;51.102;6.848;2022-11-20T02:02:43;21.30;;;14.97;;
20456;SDS011;10387;51.102;6.848;2022-11-20T02:07:55;24.27;;;15.70;;
20456;SDS011;10387;51.102;6.848;2022-11-20T02:10:23;22.43;;;15.20;;
20456;SDS011;10387;51.102;6.848;2022-11-20T02:12:49;21.63;;;14.30;;
20456;SDS011;10387;51.102;6.848;2022-11-20T02:15:34;21.40;;;15.23;;
20456;SDS011;10387;51.102;6.848;2022-11-20T02:18:00;22.13;;;15.30;;
20456;SDS011;10387;51.102;6.848;2022-11-20T02:20:27;20.07;;;15.30;;
20456;SDS011;10387;51.102;6.848;2022-11-20T02:22:58;24.00;;;15.63;;
20456;SDS011;10387;51.102;6.848;2022-11-20T02:25:25;21.23;;;15.57;;
20456;SDS011;10387;51.102;6.848;2022-11-20T02:27:52;22.43;;;16.40;;
20456;SDS011;10387;51.102;6.848;2022-11-20T02:30:18;25.10;;;15.53;;
20456;SDS011;10387;51.102;6.848;2022-11-20T02:32:44;23.17;;;15.93;;
20456;SDS011;10387;51.102;6.848;2022-11-20T02:37:47;21.67;;;15.43;;
20456;SDS011;10387;51.102;6.848;2022-11-20T02:40:14;21.80;;;15.13;;
20456;SDS011;10387;51.102;6.848;2022-11-20T02:42:40;22.83;;;14.80;;
20456;SDS011;10387;51.102;6.848;2022-11-20T02:45:07;24.93;;;16.07;;
20456;SDS011;10387;51.102;6.848;2022-11-20T02:47:33;20.37;;;15.77;;
20456;SDS011;10387;51.102;6.848;2022-11-20T02:49:59;22.63;;;15.73;;
20456;SDS011;10387;51.102;6.848;2022-11-20T02:52:26;20.53;;;14.30;;
20456;SDS011;10387;51.102;6.848;2022-11-20T02:54:52;27.37;;;15.23;;
20456;SDS011;10387;51.102;6.848;2022-11-20T02:57:18;23.90;;;14.93;;
20456;SDS011;10387;51.102;6.848;2022-11-20T02:59:45;22.13;;;14.73;;
20456;SDS011;10387;51.102;6.848;2022-11-20T03:02:11;21.27;;;14.33;;
20456;SDS011;10387;51.102;6.848;2022-11-20T03:04:38;22.63;;;14.90;;
20456;SDS011;10387;51.102;6.848;2022-11-20T03:07:05;20.90;;;14.83;;
20456;SDS011;10387;51.102;6.848;2022-11-20T03:09:31;21.50;;;14.57;;
20456;SDS011;10387;51.102;6.848;2022-11-20T03:11:57;23.00;;;15.53;;
20456;SDS011;10387;51.102;6.848;2022-11-20T03:14:24;21.57;;;14.90;;
20456;SDS011;10387;51.102;6.848;2022-11-20T03:16:50;21.90;;;15.13;;
20456;SDS011;10387;51.102;6.848;2022-11-20T03:19:16;19.83;;;14.30;;
20456;SDS011;10387;51.102;6.848;2022-11-20T03:21:42;20.07;;;14.97;;
20456;SDS011;10387;51.102;6.848;2022-11-20T03:24:08;22.47;;;15.03;;
20456;SDS011;10387;51.102;6.848;2022-11-20T03:26:34;20.23;;;14.43;;
20456;SDS011;10387;51.102;6.848;2022-11-20T03:29:02;19.70;;;14.70;;
20456;SDS011;10387;51.102;6.848;2022-11-20T03:31:34;20.73;;;14.57;;
20456;SDS011;10387;51.102;6.848;2022-11-20T03:34:06;22.57;;;15.30;;
20456;SDS011;10387;51.102;6.848;2022-11-20T03:36:32;20.10;;;14.53;;
20456;SDS011;10387;51.102;6.848;2022-11-20T03:38:58;23.70;;;15.23;;
20456;SDS011;10387;51.102;6.848;2022-11-20T03:41:29;20.53;;;15.20;;
20456;SDS011;10387;51.102;6.848;2022-11-20T03:43:59;21.20;;;14.83;;
20456;SDS011;10387;51.102;6.848;2022-11-20T03:46:25;20.30;;;14.23;;
20456;SDS011;10387;51.102;6.848;2022-11-20T03:48:52;22.43;;;15.37;;
20456;SDS011;10387;51.102;6.848;2022-11-20T03:51:23;21.40;;;15.23;;
20456;SDS011;10387;51.102;6.848;2022-11-20T03:53:50;20.80;;;14.80;;
20456;SDS011;10387;51.102;6.848;2022-11-20T03:56:17;21.93;;;14.97;;
20456;SDS011;10387;51.102;6.848;2022-11-20T03:58:43;21.50;;;15.13;;
20456;SDS011;10387;51.102;6.848;2022-11-20T04:03:36;22.57;;;15.30;;
20456;SDS011;10387;51.102;6.848;2022-11-20T04:06:06;23.63;;;15.50;;
20456;SDS011;10387;51.102;6.848;2022-11-20T04:08:32;23.10;;;15.53;;
20456;SDS011;10387;51.102;6.848;2022-11-20T04:13:55;22.87;;;15.00;;
20456;SDS011;10387;51.102;6.848;2022-11-20T04:16:23;20.20;;;14.00;;
20456;SDS011;10387;51.102;6.848;2022-11-20T04:18:53;20.33;;;14.87;;
20456;SDS011;10387;51.102;6.848;2022-11-20T04:21:20;22.33;;;15.13;;
20456;SDS011;10387;51.102;6.848;2022-11-20T04:23:48;21.77;;;14.23;;
20456;SDS011;10387;51.102;6.848;2022-11-20T04:26:14;22.80;;;15.43;;
20456;SDS011;10387;51.102;6.848;2022-11-20T04:28:40;21.37;;;14.67;;
20456;SDS011;10387;51.102;6.848;2022-11-20T04:31:08;22.17;;;15.53;;
20456;SDS011;10387;51.102;6.848;2022-11-20T04:33:35;21.43;;;15.30;;
20456;SDS011;10387;51.102;6.848;2022-11-20T04:36:07;21.40;;;14.83;;
20456;SDS011;10387;51.102;6.848;2022-11-20T04:38:33;22.27;;;15.63;;
20456;SDS011;10387;51.102;6.848;2022-11-20T04:41:00;22.13;;;15.23;;
20456;SDS011;10387;51.102;6.848;2022-11-20T04:43:26;24.30;;;16.23;;
20456;SDS011;10387;51.102;6.848;2022-11-20T04:45:53;21.00;;;15.07;;
20456;SDS011;10387;51.102;6.848;2022-11-20T04:48:20;23.90;;;15.53;;
20456;SDS011;10387;51.102;6.848;2022-11-20T04:50:46;24.30;;;16.00;;
20456;SDS011;10387;51.102;6.848;2022-11-20T04:53:12;20.83;;;15.00;;
20456;SDS011;10387;51.102;6.848;2022-11-20T04:55:38;23.20;;;15.23;;
20456;SDS011;10387;51.102;6.848;2022-11-20T04:58:04;21.40;;;15.60;;
20456;SDS011;10387;51.102;6.848;2022-11-20T05:00:30;22.57;;;15.17;;
20456;SDS011;10387;51.102;6.848;2022-11-20T05:02:56;21.10;;;14.50;;
20456;SDS011;10387;51.102;6.848;2022-11-20T05:05:22;22.80;;;14.93;;
20456;SDS011;10387;51.102;6.848;2022-11-20T05:07:48;21.20;;;14.43;;
20456;SDS011;10387;51.102;6.848;2022-11-20T05:10:14;21.07;;;14.03;;
20456;SDS011;10387;51.102;6.848;2022-11-20T05:12:41;20.93;;;15.20;;
20456;SDS011;10387;51.102;6.848;2022-11-20T05:15:07;22.27;;;15.30;;
20456;SDS011;10387;51.102;6.848;2022-11-20T05:17:34;21.27;;;16.03;;
20456;SDS011;10387;51.102;6.848;2022-11-20T05:20:00;22.10;;;15.43;;
20456;SDS011;10387;51.102;6.848;2022-11-20T05:22:26;20.73;;;14.80;;
20456;SDS011;10387;51.102;6.848;2022-11-20T05:24:52;21.77;;;15.63;;
20456;SDS011;10387;51.102;6.848;2022-11-20T05:27:19;24.37;;;16.10;;
20456;SDS011;10387;51.102;6.848;2022-11-20T05:29:47;23.83;;;16.30;;
20456;SDS011;10387;51.102;6.848;2022-11-20T05:34:49;22.10;;;15.10;;
20456;SDS011;10387;51.102;6.848;2022-11-20T05:37:15;21.53;;;15.60;;
20456;SDS011;10387;51.102;6.848;2022-11-20T05:39:41;23.40;;;15.30;;
20456;SDS011;10387;51.102;6.848;2022-11-20T05:42:07;23.20;;;16.03;;
20456;SDS011;10387;51.102;6.848;2022-11-20T05:44:51;23.53;;;16.57;;
20456;SDS011;10387;51.102;6.848;2022-11-20T05:47:18;24.27;;;15.70;;
20456;SDS011;10387;51.102;6.848;2022-11-20T05:49:44;22.17;;;16.20;;
20456;SDS011;10387;51.102;6.848;2022-11-20T05:52:10;22.73;;;15.93;;
20456;SDS011;10387;51.102;6.848;2022-11-20T05:54:36;22.23;;;15.70;;
20456;SDS011;10387;51.102;6.848;2022-11-20T05:57:02;22.27;;;15.77;;
20456;SDS011;10387;51.102;6.848;2022-11-20T05:59:28;26.50;;;16.50;;
20456;SDS011;10387;51.102;6.848;2022-11-20T06:01:54;25.83;;;16.50;;
20456;SDS011;10387;51.102;6.848;2022-11-20T06:04:21;24.10;;;16.33;;
20456;SDS011;10387;51.102;6.848;2022-11-20T06:06:47;23.63;;;16.10;;
20456;SDS011;10387;51.102;6.848;2022-11-20T06:09:28;24.10;;;15.93;;
20456;SDS011;10387;51.102;6.848;2022-11-20T06:11:54;24.37;;;16.77;;
20456;SDS011;10387;51.102;6.848;2022-11-20T06:14:20;25.57;;;16.33;;
20456;SDS011;10387;51.102;6.848;2022-11-20T06:16:46;24.20;;;16.77;;
20456;SDS011;10387;51.102;6.848;2022-11-20T06:19:13;25.10;;;16.73;;
20456;SDS011;10387;51.102;6.848;2022-11-20T06:21:40;26.83;;;17.47;;
20456;SDS011;10387;51.102;6.848;2022-11-20T06:24:06;24.50;;;17.27;;
20456;SDS011;10387;51.102;6.848;2022-11-20T06:26:32;23.37;;;16.07;;
20456;SDS011;10387;51.102;6.848;2022-11-20T06:28:58;26.60;;;18.47;;
20456;SDS011;10387;51.102;6.848;2022-11-20T06:31:25;24.37;;;16.87;;
20456;SDS011;10387;51.102;6.848;2022-11-20T06:34:03;27.43;;;18.60;;
20456;SDS011;10387;51.102;6.848;2022-11-20T06:36:31;26.13;;;18.00;;
20456;SDS011;10387;51.102;6.848;2022-11-20T06:38:57;26.27;;;17.50;;
20456;SDS011;10387;51.102;6.848;2022-11-20T06:41:23;27.43;;;17.20;;
20456;SDS011;10387;51.102;6.848;2022-11-20T06:43:50;32.90;;;19.07;;
20456;SDS011;10387;51.102;6.848;2022-11-20T06:46:17;29.97;;;18.77;;
20456;SDS011;10387;51.102;6.848;2022-11-20T06:48:43;27.90;;;18.67;;
20456;SDS011;10387;51.102;6.848;2022-11-20T06:51:10;28.70;;;18.07;;
20456;SDS011;10387;51.102;6.848;2022-11-20T06:53:36;27.83;;;18.47;;
20456;SDS011;10387;51.102;6.848;2022-11-20T06:56:02;28.07;;;18.40;;
20456;SDS011;10387;51.102;6.848;2022-11-20T06:58:29;26.23;;;17.20;;
20456;SDS011;10387;51.102;6.848;2022-11-20T07:01:03;27.57;;;18.37;;
20456;SDS011;10387;51.102;6.848;2022-11-20T07:03:29;28.23;;;19.43;;
20456;SDS011;10387;51.102;6.848;2022-11-20T07:05:56;26.07;;;18.07;;
20456;SDS011;10387;51.102;6.848;2022-11-20T07:08:22;27.07;;;17.87;;
20456;SDS011;10387;51.102;6.848;2022-11-20T07:10:48;31.47;;;20.87;;
20456;SDS011;10387;51.102;6.848;2022-11-20T07:13:15;29.57;;;19.10;;
20456;SDS011;10387;51.102;6.848;2022-11-20T07:15:42;27.67;;;17.43;;
20456;SDS011;10387;51.102;6.848;2022-11-20T07:18:09;27.07;;;18.83;;
20456;SDS011;10387;51.102;6.848;2022-11-20T07:20:36;31.17;;;19.23;;
20456;SDS011;10387;51.102;6.848;2022-11-20T07:23:02;28.83;;;18.43;;
20456;SDS011;10387;51.102;6.848;2022-11-20T07:25:28;25.73;;;17.63;;
20456;SDS011;10387;51.102;6.848;2022-11-20T07:27:59;26.10;;;17.50;;
20456;SDS011;10387;51.102;6.848;2022-11-20T07:30:25;28.00;;;19.07;;
20456;SDS011;10387;51.102;6.848;2022-11-20T07:32:52;26.33;;;17.40;;
20456;SDS011;10387;51.102;6.848;2022-11-20T07:35:18;25.30;;;16.93;;
20456;SDS011;10387;51.102;6.848;2022-11-20T07:37:45;25.57;;;17.70;;
20456;SDS011;10387;51.102;6.848;2022-11-20T07:40:12;26.00;;;19.03;;
20456;SDS011;10387;51.102;6.848;2022-11-20T07:42:39;27.53;;;16.90;;
20456;SDS011;10387;51.102;6.848;2022-11-20T07:45:05;23.03;;;15.97;;
20456;SDS011;10387;51.102;6.848;2022-11-20T07:47:35;23.83;;;16.37;;
20456;SDS011;10387;51.102;6.848;2022-11-20T07:50:04;25.87;;;17.57;;
20456;SDS011;10387;51.102;6.848;2022-11-20T07:52:31;29.33;;;17.73;;
20456;SDS011;10387;51.102;6.848;2022-11-20T07:54:57;29.03;;;17.43;;
20456;SDS011;10387;51.102;6.848;2022-11-20T07:57:23;26.67;;;17.83;;
20456;SDS011;10387;51.102;6.848;2022-11-20T07:59:49;25.73;;;17.83;;
20456;SDS011;10387;51.102;6.848;2022-11-20T08:02:15;23.33;;;16.77;;
20456;SDS011;10387;51.102;6.848;2022-11-20T08:04:41;24.70;;;18.07;;
20456;SDS011;10387;51.102;6.848;2022-11-20T08:07:08;26.57;;;18.47;;
20456;SDS011;10387;51.102;6.848;2022-11-20T08:09:34;25.73;;;17.63;;
20456;SDS011;10387;51.102;6.848;2022-11-20T08:12:00;27.07;;;17.60;;
20456;SDS011;10387;51.102;6.848;2022-11-20T08:14:45;25.20;;;17.50;;
20456;SDS011;10387;51.102;6.848;2022-11-20T08:17:11;26.27;;;18.70;;
20456;SDS011;10387;51.102;6.848;2022-11-20T08:19:37;29.27;;;17.63;;
20456;SDS011;10387;51.102;6.848;2022-11-20T08:22:04;26.37;;;18.47;;
20456;SDS011;10387;51.102;6.848;2022-11-20T08:24:30;26.33;;;18.03;;
20456;SDS011;10387;51.102;6.848;2022-11-20T08:26:59;25.50;;;17.67;;
20456;SDS011;10387;51.102;6.848;2022-11-20T08:29:26;27.57;;;19.23;;
20456;SDS011;10387;51.102;6.848;2022-11-20T08:31:52;27.87;;;18.37;;
20456;SDS011;10387;51.102;6.848;2022-11-20T08:34:18;29.93;;;19.27;;
20456;SDS011;10387;51.102;6.848;2022-11-20T08:36:44;27.13;;;17.27;;
20456;SDS011;10387;51.102;6.848;2022-11-20T08:39:11;25.60;;;18.73;;
20456;SDS011;10387;51.102;6.848;2022-11-20T08:41:38;28.90;;;20.70;;
20456;SDS011;10387;51.102;6.848;2022-11-20T08:44:05;26.43;;;19.00;;
20456;SDS011;10387;51.102;6.848;2022-11-20T08:46:41;23.77;;;17.13;;
20456;SDS011;10387;51.102;6.848;2022-11-20T08:49:09;29.30;;;20.23;;
20456;SDS011;10387;51.102;6.848;2022-11-20T08:51:46;37.03;;;23.17;;
20456;SDS011;10387;51.102;6.848;2022-11-20T08:54:16;34.63;;;25.03;;
20456;SDS011;10387;51.102;6.848;2022-11-20T08:56:45;24.97;;;19.13;;
20456;SDS011;10387;51.102;6.848;2022-11-20T08:59:13;26.23;;;18.27;;
20456;SDS011;10387;51.102;6.848;2022-11-20T09:01:39;24.60;;;16.70;;
20456;SDS011;10387;51.102;6.848;2022-11-20T09:04:05;23.67;;;16.67;;
20456;SDS011;10387;51.102;6.848;2022-11-20T09:06:31;25.17;;;17.07;;
20456;SDS011;10387;51.102;6.848;2022-11-20T09:08:57;26.57;;;17.60;;
20456;SDS011;10387;51.102;6.848;2022-11-20T09:11:23;23.83;;;15.93;;
20456;SDS011;10387;51.102;6.848;2022-11-20T09:13:50;25.27;;;16.77;;
20456;SDS011;10387;51.102;6.848;2022-11-20T09:16:16;23.80;;;15.70;;
20456;SDS011;10387;51.102;6.848;2022-11-20T09:18:42;20.97;;;15.33;;
20456;SDS011;10387;51.102;6.848;2022-11-20T09:21:11;19.83;;;14.77;;
20456;SDS011;10387;51.102;6.848;2022-11-20T09:23:40;21.30;;;14.87;;
20456;SDS011;10387;51.102;6.848;2022-11-20T09:26:08;21.33;;;14.60;;
20456;SDS011;10387;51.102;6.848;2022-11-20T09:28:35;22.23;;;15.97;;
20456;SDS011;10387;51.102;6.848;2022-11-20T09:31:09;22.73;;;16.00;;
20456;SDS011;10387;51.102;6.848;2022-11-20T09:33:35;21.63;;;14.77;;
20456;SDS011;10387;51.102;6.848;2022-11-20T09:36:04;24.23;;;15.83;;
20456;SDS011;10387;51.102;6.848;2022-11-20T09:38:30;23.63;;;16.70;;
20456;SDS011;10387;51.102;6.848;2022-11-20T09:40:57;22.00;;;15.47;;
20456;SDS011;10387;51.102;6.848;2022-11-20T09:43:27;23.20;;;15.93;;
20456;SDS011;10387;51.102;6.848;2022-11-20T09:46:17;23.20;;;16.50;;
20456;SDS011;10387;51.102;6.848;2022-11-20T09:54:19;26.87;;;17.67;;
20456;SDS011;10387;51.102;6.848;2022-11-20T09:56:58;24.80;;;17.87;;
20456;SDS011;10387;51.102;6.848;2022-11-20T09:59:45;27.30;;;18.23;;
20456;SDS011;10387;51.102;6.848;2022-11-20T10:05:11;25.77;;;20.17;;
20456;SDS011;10387;51.102;6.848;2022-11-20T10:07:44;22.60;;;17.17;;
20456;SDS011;10387;51.102;6.848;2022-11-20T10:10:18;22.87;;;14.87;;
20456;SDS011;10387;51.102;6.848;2022-11-20T10:18:01;22.60;;;15.93;;
20456;SDS011;10387;51.102;6.848;2022-11-20T10:20:37;23.63;;;16.30;;
20456;SDS011;10387;51.102;6.848;2022-11-20T10:26:09;21.70;;;15.40;;
20456;SDS011;10387;51.102;6.848;2022-11-20T10:29:10;24.27;;;15.47;;
20456;SDS011;10387;51.102;6.848;2022-11-20T10:31:44;24.00;;;17.40;;
20456;SDS011;10387;51.102;6.848;2022-11-20T10:34:26;21.47;;;15.50;;
20456;SDS011;10387;51.102;6.848;2022-11-20T10:37:20;22.90;;;15.10;;
20456;SDS011;10387;51.102;6.848;2022-11-20T10:40:29;22.70;;;15.43;;
20456;SDS011;10387;51.102;6.848;2022-11-20T10:48:26;25.00;;;16.80;;
20456;SDS011;10387;51.102;6.848;2022-11-20T10:55:54;21.63;;;14.70;;
20456;SDS011;10387;51.102;6.848;2022-11-20T11:01:20;23.17;;;15.63;;
20456;SDS011;10387;51.102;6.848;2022-11-20T11:03:48;21.70;;;16.37;;
20456;SDS011;10387;51.102;6.848;2022-11-20T11:06:21;23.27;;;16.27;;
20456;SDS011;10387;51.102;6.848;2022-11-20T11:08:50;22.33;;;15.70;;
20456;SDS011;10387;51.102;6.848;2022-11-20T11:11:31;22.30;;;15.63;;
20456;SDS011;10387;51.102;6.848;2022-11-20T11:14:09;24.37;;;15.53;;
20456;SDS011;10387;51.102;6.848;2022-11-20T11:16:40;23.53;;;15.83;;
20456;SDS011;10387;51.102;6.848;2022-11-20T11:19:12;22.90;;;15.53;;
20456;SDS011;10387;51.102;6.848;2022-11-20T11:21:46;23.37;;;15.33;;
20456;SDS011;10387;51.102;6.848;2022-11-20T11:24:22;24.43;;;17.53;;
20456;SDS011;10387;51.102;6.848;2022-11-20T11:26:56;27.67;;;19.67;;
20456;SDS011;10387;51.102;6.848;2022-11-20T11:29:23;28.30;;;20.47;;
20456;SDS011;10387;51.102;6.848;2022-11-20T11:32:11;34.10;;;22.50;;
20456;SDS011;10387;51.102;6.848;2022-11-20T11:38:11;26.67;;;18.23;;
20456;SDS011;10387;51.102;6.848;2022-11-20T11:40:54;27.40;;;17.73;;
20456;SDS011;10387;51.102;6.848;2022-11-20T11:50:30;27.47;;;17.63;;
20456;SDS011;10387;51.102;6.848;2022-11-20T11:53:15;28.00;;;19.27;;
20456;SDS011;10387;51.102;6.848;2022-11-20T11:59:06;27.30;;;18.40;;
20456;SDS011;10387;51.102;6.848;2022-11-20T12:01:46;27.37;;;18.27;;
20456;SDS011;10387;51.102;6.848;2022-11-20T12:13:28;27.37;;;18.30;;
20456;SDS011;10387;51.102;6.848;2022-11-20T12:15:58;25.50;;;17.67;;
20456;SDS011;10387;51.102;6.848;2022-11-20T12:18:24;27.90;;;18.73;;
20456;SDS011;10387;51.102;6.848;2022-11-20T12:20:55;27.67;;;18.43;;
20456;SDS011;10387;51.102;6.848;2022-11-20T12:23:41;29.27;;;18.87;;
20456;SDS011;10387;51.102;6.848;2022-11-20T12:44:25;29.60;;;19.60;;
20456;SDS011;10387;51.102;6.848;2022-11-20T12:50:02;31.37;;;20.00;;
20456;SDS011;10387;51.102;6.848;2022-11-20T12:52:37;31.27;;;19.77;;
20456;SDS011;10387;51.102;6.848;2022-11-20T12:56:10;33.13;;;21.03;;
20456;SDS011;10387;51.102;6.848;2022-11-20T13:00:36;31.57;;;19.60;;
20456;SDS011;10387;51.102;6.848;2022-11-20T13:08:59;29.60;;;20.00;;
20456;SDS011;10387;51.102;6.848;2022-11-20T13:14:29;29.23;;;20.33;;
20456;SDS011;10387;51.102;6.848;2022-11-20T13:19:33;28.43;;;20.07;;
20456;SDS011;10387;51.102;6.848;2022-11-20T13:22:00;28.93;;;19.57;;
20456;SDS011;10387;51.102;6.848;2022-11-20T13:24:28;30.20;;;19.93;;
20456;SDS011;10387;51.102;6.848;2022-11-20T13:29:31;31.60;;;20.50;;
20456;SDS011;10387;51.102;6.848;2022-11-20T13:32:02;32.03;;;20.47;;
20456;SDS011;10387;51.102;6.848;2022-11-20T13:34:29;32.03;;;20.30;;
20456;SDS011;10387;51.102;6.848;2022-11-20T13:36:56;30.80;;;20.23;;
20456;SDS011;10387;51.102;6.848;2022-11-20T13:39:30;29.53;;;19.20;;
20456;SDS011;10387;51.102;6.848;2022-11-20T13:42:02;29.97;;;19.60;;
20456;SDS011;10387;51.102;6.848;2022-11-20T13:46:59;29.13;;;19.17;;
20456;SDS011;10387;51.102;6.848;2022-11-20T13:49:39;29.93;;;19.43;;
20456;SDS011;10387;51.102;6.848;2022-11-20T14:00:20;27.73;;;18.83;;
20456;SDS011;10387;51.102;6.848;2022-11-20T14:05:35;27.57;;;18.43;;
20456;SDS011;10387;51.102;6.848;2022-11-20T14:08:06;27.77;;;19.40;;
20456;SDS011;10387;51.102;6.848;2022-11-20T14:10:39;26.97;;;17.93;;
20456;SDS011;10387;51.102;6.848;2022-11-20T14:13:18;28.57;;;18.87;;
20456;SDS011;10387;51.102;6.848;2022-11-20T14:26:30;29.90;;;18.10;;
20456;SDS011;10387;51.102;6.848;2022-11-20T14:33:15;26.43;;;18.13;;
20456;SDS011;10387;51.102;6.848;2022-11-20T14:41:30;24.03;;;16.73;;
20456;SDS011;10387;51.102;6.848;2022-11-20T14:56:03;25.30;;;16.83;;
20456;SDS011;10387;51.102;6.848;2022-11-20T14:58:33;26.60;;;18.47;;
20456;SDS011;10387;51.102;6.848;2022-11-20T15:01:04;26.27;;;17.10;;
20456;SDS011;10387;51.102;6.848;2022-11-20T15:03:39;25.47;;;17.97;;
20456;SDS011;10387;51.102;6.848;2022-11-20T15:06:06;27.93;;;17.77;;
20456;SDS011;10387;51.102;6.848;2022-11-20T15:08:33;27.10;;;17.43;;
20456;SDS011;10387;51.102;6.848;2022-11-20T15:10:59;24.57;;;17.03;;
20456;SDS011;10387;51.102;6.848;2022-11-20T15:13:33;25.90;;;17.20;;
20456;SDS011;10387;51.102;6.848;2022-11-20T15:16:01;28.47;;;17.53;;
20456;SDS011;10387;51.102;6.848;2022-11-20T15:18:28;24.87;;;17.33;;
20456;SDS011;10387;51.102;6.848;2022-11-20T15:21:01;28.20;;;17.70;;
20456;SDS011;10387;51.102;6.848;2022-11-20T15:23:27;27.13;;;18.30;;
20456;SDS011;10387;51.102;6.848;2022-11-20T15:25:56;29.97;;;19.53;;
20456;SDS011;10387;51.102;6.848;2022-11-20T15:28:27;28.97;;;19.93;;
20456;SDS011;10387;51.102;6.848;2022-11-20T15:30:55;31.87;;;20.83;;
20456;SDS011;10387;51.102;6.848;2022-11-20T15:33:21;25.37;;;17.63;;
20456;SDS011;10387;51.102;6.848;2022-11-20T15:35:47;28.97;;;19.87;;
20456;SDS011;10387;51.102;6.848;2022-11-20T15:38:13;26.97;;;19.23;;
20456;SDS011;10387;51.102;6.848;2022-11-20T15:40:40;29.57;;;19.00;;
20456;SDS011;10387;51.102;6.848;2022-11-20T15:43:06;31.33;;;20.17;;
20456;SDS011;10387;51.102;6.848;2022-11-20T15:45:37;28.63;;;19.20;;
20456;SDS011;10387;51.102;6.848;2022-11-20T15:48:04;28.63;;;19.40;;
20456;SDS011;10387;51.102;6.848;2022-11-20T15:50:37;29.63;;;19.90;;
20456;SDS011;10387;51.102;6.848;2022-11-20T15:53:03;30.80;;;21.93;;
20456;SDS011;10387;51.102;6.848;2022-11-20T15:55:32;32.10;;;21.07;;
20456;SDS011;10387;51.102;6.848;2022-11-20T15:57:58;32.37;;;20.27;;
20456;SDS011;10387;51.102;6.848;2022-11-20T16:00:24;34.17;;;20.67;;
20456;SDS011;10387;51.102;6.848;2022-11-20T16:02:50;32.70;;;21.13;;
20456;SDS011;10387;51.102;6.848;2022-11-20T16:05:16;31.83;;;19.77;;
20456;SDS011;10387;51.102;6.848;2022-11-20T16:07:42;35.97;;;22.07;;
20456;SDS011;10387;51.102;6.848;2022-11-20T16:10:09;32.93;;;21.90;;
20456;SDS011;10387;51.102;6.848;2022-11-20T16:12:35;32.53;;;21.57;;
20456;SDS011;10387;51.102;6.848;2022-11-20T16:15:20;32.20;;;21.87;;
20456;SDS011;10387;51.102;6.848;2022-11-20T16:18:04;36.07;;;21.67;;
20456;SDS011;10387;51.102;6.848;2022-11-20T16:20:30;36.53;;;22.47;;
20456;SDS011;10387;51.102;6.848;2022-11-20T16:22:56;40.33;;;29.57;;
20456;SDS011;10387;51.102;6.848;2022-11-20T16:25:23;42.47;;;25.13;;
20456;SDS011;10387;51.102;6.848;2022-11-20T16:27:49;42.07;;;26.57;;
20456;SDS011;10387;51.102;6.848;2022-11-20T16:30:16;33.57;;;22.97;;
20456;SDS011;10387;51.102;6.848;2022-11-20T16:32:42;34.30;;;22.40;;
20456;SDS011;10387;51.102;6.848;2022-11-20T16:35:08;34.87;;;22.53;;
20456;SDS011;10387;51.102;6.848;2022-11-20T16:37:34;34.93;;;22.03;;
20456;SDS011;10387;51.102;6.848;2022-11-20T16:40:00;33.90;;;21.03;;
20456;SDS011;10387;51.102;6.848;2022-11-20T16:42:26;33.83;;;21.63;;
20456;SDS011;10387;51.102;6.848;2022-11-20T16:44:52;34.43;;;24.80;;
20456;SDS011;10387;51.102;6.848;2022-11-20T16:47:21;30.93;;;21.60;;
20456;SDS011;10387;51.102;6.848;2022-11-20T16:49:47;32.67;;;21.60;;
20456;SDS011;10387;51.102;6.848;2022-11-20T16:52:13;33.80;;;22.43;;
20456;SDS011;10387;51.102;6.848;2022-11-20T16:54:39;31.37;;;20.57;;
20456;SDS011;10387;51.102;6.848;2022-11-20T16:57:08;34.63;;;20.60;;
20456;SDS011;10387;51.102;6.848;2022-11-20T16:59:34;35.23;;;20.93;;
20456;SDS011;10387;51.102;6.848;2022-11-20T17:02:00;34.10;;;20.33;;
20456;SDS011;10387;51.102;6.848;2022-11-20T17:04:26;34.80;;;21.40;;